sensor_id;sensor_type;location;lat;lon;timestamp;pressure;altitude;pressure_sealevel;temperature;humidity
44825;BME280;30542;47.928;2.138;2023-05-09T00:03:09;100665.31;;;21.43;55.41
44825;BME280;30542;47.928;2.138;2023-05-09T00:08:11;100653.25;;;21.40;55.73
44825;BME280;30542;47.928;2.138;2023-05-09T00:13:12;100657.53;;;21.41;55.13
44825;BME280;30542;47.928;2.138;2023-05-09T00:18:13;100652.19;;;21.41;55.16
44825;BME280;30542;47.928;2.138;2023-05-09T00:23:14;100654.06;;;21.41;55.41
44825;BME280;30542;47.928;2.138;2023-05-09T00:28:14;100643.34;;;21.41;55.41
44825;BME280;30542;47.928;2.138;2023-05-09T00:33:14;100637.97;;;21.41;55.36
44825;BME280;30542;47.928;2.138;2023-05-09T00:38:15;100637.19;;;21.40;55.37
44825;BME280;30542;47.928;2.138;2023-05-09T00:43:15;100631.00;;;21.40;55.65
44825;BME280;30542;47.928;2.138;2023-05-09T00:48:16;100611.97;;;21.36;55.44
44825;BME280;30542;47.928;2.138;2023-05-09T00:53:18;100609.84;;;21.38;55.38
44825;BME280;30542;47.928;2.138;2023-05-09T00:58:19;100612.50;;;21.38;55.43
44825;BME280;30542;47.928;2.138;2023-05-09T01:03:20;100605.56;;;21.37;55.42
44825;BME280;30542;47.928;2.138;2023-05-09T01:08:33;100599.09;;;21.38;55.43
44825;BME280;30542;47.928;2.138;2023-05-09T01:13:51;100597.50;;;21.37;55.33
44825;BME280;30542;47.928;2.138;2023-05-09T01:24:25;100580.63;;;21.37;55.31
44825;BME280;30542;47.928;2.138;2023-05-09T01:29:35;100576.31;;;21.35;55.36
44825;BME280;30542;47.928;2.138;2023-05-09T01:34:37;100562.69;;;21.32;55.28
44825;BME280;30542;47.928;2.138;2023-05-09T01:39:41;100568.56;;;21.34;55.77
44825;BME280;30542;47.928;2.138;2023-05-09T01:44:46;100563.19;;;21.34;55.49
44825;BME280;30542;47.928;2.138;2023-05-09T01:49:46;100564.81;;;21.35;55.52
44825;BME280;30542;47.928;2.138;2023-05-09T01:54:47;100552.22;;;21.35;55.32
44825;BME280;30542;47.928;2.138;2023-05-09T01:59:50;100546.31;;;21.33;55.29
44825;BME280;30542;47.928;2.138;2023-05-09T02:04:51;100548.69;;;21.30;55.35
44825;BME280;30542;47.928;2.138;2023-05-09T02:09:54;100542.25;;;21.31;55.47
44825;BME280;30542;47.928;2.138;2023-05-09T02:14:55;100540.66;;;21.30;55.34
44825;BME280;30542;47.928;2.138;2023-05-09T02:19:56;100548.41;;;21.31;55.56
44825;BME280;30542;47.928;2.138;2023-05-09T02:24:56;100541.25;;;21.32;55.49
44825;BME280;30542;47.928;2.138;2023-05-09T02:29:58;100550.88;;;21.33;55.24
44825;BME280;30542;47.928;2.138;2023-05-09T02:35:02;100541.75;;;21.29;55.57
44825;BME280;30542;47.928;2.138;2023-05-09T02:40:05;100539.06;;;21.29;55.45
44825;BME280;30542;47.928;2.138;2023-05-09T02:45:08;100541.47;;;21.30;55.35
44825;BME280;30542;47.928;2.138;2023-05-09T02:50:10;100543.06;;;21.31;55.51
44825;BME280;30542;47.928;2.138;2023-05-09T02:55:11;100536.91;;;21.31;55.30
44825;BME280;30542;47.928;2.138;2023-05-09T03:00:12;100537.19;;;21.29;55.50
44825;BME280;30542;47.928;2.138;2023-05-09T03:05:12;100534.50;;;21.29;55.43
44825;BME280;30542;47.928;2.138;2023-05-09T03:10:12;100534.50;;;21.29;55.44
44825;BME280;30542;47.928;2.138;2023-05-09T03:15:13;100537.47;;;21.28;55.32
44825;BME280;30542;47.928;2.138;2023-05-09T03:20:14;100529.41;;;21.28;55.37
44825;BME280;30542;47.928;2.138;2023-05-09T03:25:14;100524.06;;;21.28;55.47
44825;BME280;30542;47.928;2.138;2023-05-09T03:30:15;100512.53;;;21.27;55.50
44825;BME280;30542;47.928;2.138;2023-05-09T03:35:16;100505.56;;;21.26;55.43
44825;BME280;30542;47.928;2.138;2023-05-09T03:40:16;100501.28;;;21.25;55.37
44825;BME280;30542;47.928;2.138;2023-05-09T03:45:17;100502.34;;;21.24;55.47
44825;BME280;30542;47.928;2.138;2023-05-09T03:50:17;100494.31;;;21.24;55.54
44825;BME280;30542;47.928;2.138;2023-05-09T03:55:17;100481.72;;;21.25;55.57
44825;BME280;30542;47.928;2.138;2023-05-09T04:00:18;100473.41;;;21.26;55.36
44825;BME280;30542;47.928;2.138;2023-05-09T04:05:19;100462.97;;;21.20;55.42
44825;BME280;30542;47.928;2.138;2023-05-09T04:10:20;100458.41;;;21.25;55.41
44825;BME280;30542;47.928;2.138;2023-05-09T04:15:20;100442.63;;;21.24;55.77
44825;BME280;30542;47.928;2.138;2023-05-09T04:20:20;100444.75;;;21.27;55.38
44825;BME280;30542;47.928;2.138;2023-05-09T04:25:21;100435.66;;;21.28;55.40
44825;BME280;30542;47.928;2.138;2023-05-09T04:30:21;100429.75;;;21.26;55.47
44825;BME280;30542;47.928;2.138;2023-05-09T04:35:21;100418.78;;;21.17;55.75
44825;BME280;30542;47.928;2.138;2023-05-09T04:40:22;100416.34;;;21.26;55.70
44825;BME280;30542;47.928;2.138;2023-05-09T04:45:22;100412.06;;;21.25;55.52
44825;BME280;30542;47.928;2.138;2023-05-09T04:50:22;100406.16;;;21.23;55.19
44825;BME280;30542;47.928;2.138;2023-05-09T04:55:23;100405.66;;;21.21;54.41
44825;BME280;30542;47.928;2.138;2023-05-09T05:00:23;100401.09;;;21.16;53.95
44825;BME280;30542;47.928;2.138;2023-05-09T05:05:24;100387.16;;;21.14;54.13
44825;BME280;30542;47.928;2.138;2023-05-09T05:10:24;100385.84;;;21.17;53.97
44825;BME280;30542;47.928;2.138;2023-05-09T05:15:24;100383.97;;;21.17;53.96
44825;BME280;30542;47.928;2.138;2023-05-09T05:20:25;100382.63;;;21.20;54.01
44825;BME280;30542;47.928;2.138;2023-05-09T05:25:26;100380.75;;;21.20;54.13
44825;BME280;30542;47.928;2.138;2023-05-09T05:30:26;100379.94;;;21.20;54.05
44825;BME280;30542;47.928;2.138;2023-05-09T05:35:27;100373.78;;;21.19;54.43
44825;BME280;30542;47.928;2.138;2023-05-09T05:40:28;100369.75;;;21.17;54.43
44825;BME280;30542;47.928;2.138;2023-05-09T05:45:28;100377.81;;;21.17;54.54
44825;BME280;30542;47.928;2.138;2023-05-09T05:50:30;100363.59;;;21.16;54.88
44825;BME280;30542;47.928;2.138;2023-05-09T05:55:30;100353.97;;;21.15;55.04
44825;BME280;30542;47.928;2.138;2023-05-09T06:00:30;100352.34;;;21.09;55.16
44825;BME280;30542;47.928;2.138;2023-05-09T06:05:30;100350.47;;;21.15;55.32
44825;BME280;30542;47.928;2.138;2023-05-09T06:10:31;100346.19;;;21.14;55.36
44825;BME280;30542;47.928;2.138;2023-05-09T06:15:31;100348.34;;;21.17;55.10
44825;BME280;30542;47.928;2.138;2023-05-09T06:20:32;100349.41;;;21.16;55.18
44825;BME280;30542;47.928;2.138;2023-05-09T06:25:32;100350.47;;;21.15;55.32
44825;BME280;30542;47.928;2.138;2023-05-09T06:30:32;100343.78;;;21.17;55.46
44825;BME280;30542;47.928;2.138;2023-05-09T06:35:33;100340.31;;;21.17;55.53
44825;BME280;30542;47.928;2.138;2023-05-09T06:40:33;100340.59;;;21.15;56.09
44825;BME280;30542;47.928;2.138;2023-05-09T06:45:33;100341.09;;;21.17;56.34
44825;BME280;30542;47.928;2.138;2023-05-09T06:50:34;100338.41;;;21.17;56.47
44825;BME280;30542;47.928;2.138;2023-05-09T06:55:34;100332.25;;;21.17;56.37
44825;BME280;30542;47.928;2.138;2023-05-09T07:00:35;100319.16;;;21.10;56.70
44825;BME280;30542;47.928;2.138;2023-05-09T07:05:35;100318.31;;;21.15;56.17
44825;BME280;30542;47.928;2.138;2023-05-09T07:10:35;100309.50;;;21.14;56.15
44825;BME280;30542;47.928;2.138;2023-05-09T07:15:37;100304.41;;;21.13;56.07
44825;BME280;30542;47.928;2.138;2023-05-09T07:20:38;100291.06;;;21.07;55.90
44825;BME280;30542;47.928;2.138;2023-05-09T07:25:38;100287.28;;;21.08;55.89
44825;BME280;30542;47.928;2.138;2023-05-09T07:30:38;100284.06;;;21.12;55.64
44825;BME280;30542;47.928;2.138;2023-05-09T07:35:39;100279.78;;;21.10;55.70
44825;BME280;30542;47.928;2.138;2023-05-09T07:40:39;100276.84;;;21.12;55.21
44825;BME280;30542;47.928;2.138;2023-05-09T07:45:40;100268.53;;;21.08;55.68
44825;BME280;30542;47.928;2.138;2023-05-09T07:50:40;100266.38;;;21.10;55.36
44825;BME280;30542;47.928;2.138;2023-05-09T07:55:41;100265.88;;;21.08;55.45
44825;BME280;30542;47.928;2.138;2023-05-09T08:00:41;100260.50;;;21.08;55.24
44825;BME280;30542;47.928;2.138;2023-05-09T08:05:41;100238.81;;;21.05;54.93
44825;BME280;30542;47.928;2.138;2023-05-09T08:10:42;100236.13;;;21.10;55.11
44825;BME280;30542;47.928;2.138;2023-05-09T08:15:42;100233.72;;;21.08;55.12
44825;BME280;30542;47.928;2.138;2023-05-09T08:20:43;100236.41;;;21.08;54.79
44825;BME280;30542;47.928;2.138;2023-05-09T08:25:43;100222.22;;;21.08;54.63
44825;BME280;30542;47.928;2.138;2023-05-09T08:30:43;100218.47;;;21.09;54.29
44825;BME280;30542;47.928;2.138;2023-05-09T08:35:44;100217.66;;;21.08;53.95
44825;BME280;30542;47.928;2.138;2023-05-09T08:40:45;100196.50;;;21.02;53.98
44825;BME280;30542;47.928;2.138;2023-05-09T08:45:50;100201.88;;;21.07;53.63
44825;BME280;30542;47.928;2.138;2023-05-09T08:50:51;100192.75;;;21.08;53.37
44825;BME280;30542;47.928;2.138;2023-05-09T08:55:52;100193.84;;;21.07;53.47
44825;BME280;30542;47.928;2.138;2023-05-09T09:00:52;100182.63;;;21.00;53.37
44825;BME280;30542;47.928;2.138;2023-05-09T09:05:55;100179.41;;;21.03;53.45
44825;BME280;30542;47.928;2.138;2023-05-09T09:10:55;100175.88;;;21.02;53.52
44825;BME280;30542;47.928;2.138;2023-05-09T09:15:57;100167.06;;;21.02;53.68
44825;BME280;30542;47.928;2.138;2023-05-09T09:21:11;100162.78;;;21.01;53.44
44825;BME280;30542;47.928;2.138;2023-05-09T09:26:12;100166.53;;;21.00;53.31
44825;BME280;30542;47.928;2.138;2023-05-09T09:31:20;100163.06;;;20.99;53.50
44825;BME280;30542;47.928;2.138;2023-05-09T09:36:28;100159.06;;;20.97;53.39
44825;BME280;30542;47.928;2.138;2023-05-09T09:41:30;100143.81;;;20.92;53.46
44825;BME280;30542;47.928;2.138;2023-05-09T09:46:46;100139.81;;;20.95;53.42
44825;BME280;30542;47.928;2.138;2023-05-09T09:51:52;100144.31;;;20.94;53.65
44825;BME280;30542;47.928;2.138;2023-05-09T09:56:53;100134.19;;;20.91;53.31
44825;BME280;30542;47.928;2.138;2023-05-09T10:02:01;100135.78;;;20.92;53.48
44825;BME280;30542;47.928;2.138;2023-05-09T10:07:05;100126.16;;;20.91;53.46
44825;BME280;30542;47.928;2.138;2023-05-09T10:12:07;100125.34;;;20.91;53.65
44825;BME280;30542;47.928;2.138;2023-05-09T10:17:10;100110.34;;;20.90;54.78
44825;BME280;30542;47.928;2.138;2023-05-09T10:22:14;100111.69;;;20.92;55.50
44825;BME280;30542;47.928;2.138;2023-05-09T10:27:18;100104.75;;;20.91;55.90
44825;BME280;30542;47.928;2.138;2023-05-09T10:32:25;100100.69;;;20.94;55.76
44825;BME280;30542;47.928;2.138;2023-05-09T10:37:26;100090.28;;;20.92;56.00
44825;BME280;30542;47.928;2.138;2023-05-09T10:42:28;100095.91;;;20.91;55.96
44825;BME280;30542;47.928;2.138;2023-05-09T10:47:29;100089.22;;;20.88;55.82
44825;BME280;30542;47.928;2.138;2023-05-09T10:52:31;100091.91;;;20.88;55.65
44825;BME280;30542;47.928;2.138;2023-05-09T10:57:38;100095.38;;;20.89;55.29
44825;BME280;30542;47.928;2.138;2023-05-09T11:02:38;100074.25;;;20.87;55.27
44825;BME280;30542;47.928;2.138;2023-05-09T11:07:38;100087.88;;;20.85;55.12
44825;BME280;30542;47.928;2.138;2023-05-09T11:12:53;100078.78;;;20.81;55.23
44825;BME280;30542;47.928;2.138;2023-05-09T11:18:08;100072.66;;;20.81;55.17
44825;BME280;30542;47.928;2.138;2023-05-09T11:23:09;100068.63;;;20.83;54.93
44825;BME280;30542;47.928;2.138;2023-05-09T11:28:28;100064.91;;;20.79;54.97
44825;BME280;30542;47.928;2.138;2023-05-09T11:33:29;100069.47;;;20.79;55.01
44825;BME280;30542;47.928;2.138;2023-05-09T11:38:39;100068.91;;;20.77;54.89
44825;BME280;30542;47.928;2.138;2023-05-09T11:43:41;100072.69;;;20.76;54.79
44825;BME280;30542;47.928;2.138;2023-05-09T11:48:43;100066.53;;;20.75;54.88
44825;BME280;30542;47.928;2.138;2023-05-09T11:53:44;100069.75;;;20.72;54.73
44825;BME280;30542;47.928;2.138;2023-05-09T11:58:49;100073.22;;;20.73;54.72
44825;BME280;30542;47.928;2.138;2023-05-09T12:03:50;100070.03;;;20.71;54.83
44825;BME280;30542;47.928;2.138;2023-05-09T12:08:51;100067.34;;;20.71;54.68
44825;BME280;30542;47.928;2.138;2023-05-09T12:13:52;100067.06;;;20.72;54.68
44825;BME280;30542;47.928;2.138;2023-05-09T12:18:52;100070.56;;;20.68;54.82
44825;BME280;30542;47.928;2.138;2023-05-09T12:23:54;100056.69;;;20.66;55.02
44825;BME280;30542;47.928;2.138;2023-05-09T12:28:55;100048.13;;;20.58;54.95
44825;BME280;30542;47.928;2.138;2023-05-09T12:33:56;100055.88;;;20.60;55.02
44825;BME280;30542;47.928;2.138;2023-05-09T12:38:56;100062.59;;;20.57;55.28
44825;BME280;30542;47.928;2.138;2023-05-09T12:43:57;100057.25;;;20.57;55.42
44825;BME280;30542;47.928;2.138;2023-05-09T12:48:58;100068.50;;;20.54;55.43
44825;BME280;30542;47.928;2.138;2023-05-09T12:54:02;100063.69;;;20.51;55.52
44825;BME280;30542;47.928;2.138;2023-05-09T12:59:09;100064.75;;;20.50;55.71
44825;BME280;30542;47.928;2.138;2023-05-09T13:04:10;100059.69;;;20.49;55.76
44825;BME280;30542;47.928;2.138;2023-05-09T13:09:10;100069.03;;;20.51;55.77
44825;BME280;30542;47.928;2.138;2023-05-09T13:14:12;100059.13;;;20.52;55.63
44825;BME280;30542;47.928;2.138;2023-05-09T13:19:13;100055.66;;;20.51;55.78
44825;BME280;30542;47.928;2.138;2023-05-09T13:24:13;100049.00;;;20.49;55.78
44825;BME280;30542;47.928;2.138;2023-05-09T13:29:13;100050.59;;;20.50;55.83
44825;BME280;30542;47.928;2.138;2023-05-09T13:34:14;100047.38;;;20.53;55.80
44825;BME280;30542;47.928;2.138;2023-05-09T13:39:14;100034.00;;;20.53;55.79
44825;BME280;30542;47.928;2.138;2023-05-09T13:44:15;100039.59;;;20.51;55.87
44825;BME280;30542;47.928;2.138;2023-05-09T13:49:15;100051.09;;;20.52;55.76
44825;BME280;30542;47.928;2.138;2023-05-09T13:54:16;100046.81;;;20.51;56.23
44825;BME280;30542;47.928;2.138;2023-05-09T13:59:18;100047.34;;;20.48;55.80
44825;BME280;30542;47.928;2.138;2023-05-09T14:04:19;100045.22;;;20.50;55.75
44825;BME280;30542;47.928;2.138;2023-05-09T14:09:20;100029.97;;;20.45;55.78
44825;BME280;30542;47.928;2.138;2023-05-09T14:14:22;100047.63;;;20.51;55.80
44825;BME280;30542;47.928;2.138;2023-05-09T14:19:23;100037.72;;;20.52;55.94
44825;BME280;30542;47.928;2.138;2023-05-09T14:24:25;100037.19;;;20.50;55.95
44825;BME280;30542;47.928;2.138;2023-05-09T14:29:30;100044.16;;;20.51;55.47
44825;BME280;30542;47.928;2.138;2023-05-09T14:34:32;100043.34;;;20.50;56.05
44825;BME280;30542;47.928;2.138;2023-05-09T14:39:32;100044.44;;;20.49;55.83
44825;BME280;30542;47.928;2.138;2023-05-09T14:44:32;100046.03;;;20.50;55.90
44825;BME280;30542;47.928;2.138;2023-05-09T14:49:33;100046.53;;;20.47;55.79
44825;BME280;30542;47.928;2.138;2023-05-09T14:54:34;100041.47;;;20.51;55.97
44825;BME280;30542;47.928;2.138;2023-05-09T14:59:34;100031.56;;;20.51;56.00
44825;BME280;30542;47.928;2.138;2023-05-09T15:04:34;100034.25;;;20.51;55.84
44825;BME280;30542;47.928;2.138;2023-05-09T15:09:35;100038.00;;;20.50;55.97
44825;BME280;30542;47.928;2.138;2023-05-09T15:14:35;100038.00;;;20.50;55.80
44825;BME280;30542;47.928;2.138;2023-05-09T15:19:35;100037.47;;;20.48;55.85
44825;BME280;30542;47.928;2.138;2023-05-09T15:24:37;100034.25;;;20.46;56.07
44825;BME280;30542;47.928;2.138;2023-05-09T15:29:37;100036.91;;;20.51;55.89
44825;BME280;30542;47.928;2.138;2023-05-09T15:34:37;100044.94;;;20.51;55.77
44825;BME280;30542;47.928;2.138;2023-05-09T15:39:38;100027.81;;;20.52;55.75
44825;BME280;30542;47.928;2.138;2023-05-09T15:44:42;100028.38;;;20.49;55.90
44825;BME280;30542;47.928;2.138;2023-05-09T15:49:43;100038.00;;;20.50;55.81
44825;BME280;30542;47.928;2.138;2023-05-09T15:54:43;100028.88;;;20.56;55.77
44825;BME280;30542;47.928;2.138;2023-05-09T15:59:44;100036.88;;;20.56;55.85
44825;BME280;30542;47.928;2.138;2023-05-09T16:04:44;100034.75;;;20.58;55.82
44825;BME280;30542;47.928;2.138;2023-05-09T16:09:45;100018.66;;;20.64;55.63
44825;BME280;30542;47.928;2.138;2023-05-09T16:14:45;100021.88;;;20.60;55.62
44825;BME280;30542;47.928;2.138;2023-05-09T16:19:45;100023.78;;;20.55;55.80
44825;BME280;30542;47.928;2.138;2023-05-09T16:24:46;100022.47;;;20.57;55.94
44825;BME280;30542;47.928;2.138;2023-05-09T16:29:48;100021.66;;;20.57;55.88
44825;BME280;30542;47.928;2.138;2023-05-09T16:34:48;100018.97;;;20.62;56.02
44825;BME280;30542;47.928;2.138;2023-05-09T16:39:48;100026.72;;;20.58;55.91
44825;BME280;30542;47.928;2.138;2023-05-09T16:44:49;100004.56;;;20.43;56.09
44825;BME280;30542;47.928;2.138;2023-05-09T16:49:49;100013.38;;;20.53;56.11
44825;BME280;30542;47.928;2.138;2023-05-09T16:54:49;100004.81;;;20.51;55.83
44825;BME280;30542;47.928;2.138;2023-05-09T16:59:50;100014.72;;;20.51;55.85
44825;BME280;30542;47.928;2.138;2023-05-09T17:04:50;100025.97;;;20.53;56.12
44825;BME280;30542;47.928;2.138;2023-05-09T17:09:50;100017.63;;;20.59;56.04
44825;BME280;30542;47.928;2.138;2023-05-09T17:14:51;100009.56;;;20.65;56.04
44825;BME280;30542;47.928;2.138;2023-05-09T17:19:51;100007.97;;;20.64;56.10
44825;BME280;30542;47.928;2.138;2023-05-09T17:24:52;100018.16;;;20.62;56.29
44825;BME280;30542;47.928;2.138;2023-05-09T17:29:53;100025.38;;;20.61;56.82
44825;BME280;30542;47.928;2.138;2023-05-09T17:34:53;100027.28;;;20.55;56.67
44825;BME280;30542;47.928;2.138;2023-05-09T17:39:54;100026.22;;;20.46;57.02
44825;BME280;30542;47.928;2.138;2023-05-09T17:44:54;100034.25;;;20.51;56.67
44825;BME280;30542;47.928;2.138;2023-05-09T17:49:55;100031.56;;;20.51;57.08
44825;BME280;30542;47.928;2.138;2023-05-09T17:54:55;100010.69;;;20.58;56.91
44825;BME280;30542;47.928;2.138;2023-05-09T17:59:56;99996.22;;;20.59;57.26
44825;BME280;30542;47.928;2.138;2023-05-09T18:04:57;99994.06;;;20.62;56.88
44825;BME280;30542;47.928;2.138;2023-05-09T18:09:57;99992.47;;;20.60;57.21
44825;BME280;30542;47.928;2.138;2023-05-09T18:14:58;100004.50;;;20.63;56.97
44825;BME280;30542;47.928;2.138;2023-05-09T18:19:59;100021.63;;;20.62;57.23
44825;BME280;30542;47.928;2.138;2023-05-09T18:24:59;100048.66;;;20.60;57.24
44825;BME280;30542;47.928;2.138;2023-05-09T18:29:59;100063.66;;;20.62;57.16
44825;BME280;30542;47.928;2.138;2023-05-09T18:35:00;100065.25;;;20.63;57.05
44825;BME280;30542;47.928;2.138;2023-05-09T18:40:00;100065.50;;;20.61;57.12
44825;BME280;30542;47.928;2.138;2023-05-09T18:45:01;100068.47;;;20.59;57.11
44825;BME280;30542;47.928;2.138;2023-05-09T18:50:04;100078.88;;;20.61;57.09
44825;BME280;30542;47.928;2.138;2023-05-09T18:55:04;100082.91;;;20.64;57.07
44825;BME280;30542;47.928;2.138;2023-05-09T19:00:06;100090.63;;;20.65;57.08
44825;BME280;30542;47.928;2.138;2023-05-09T19:05:07;100088.25;;;20.64;57.16
44825;BME280;30542;47.928;2.138;2023-05-09T19:10:08;100092.00;;;20.63;57.05
44825;BME280;30542;47.928;2.138;2023-05-09T19:15:09;100094.94;;;20.61;57.10
44825;BME280;30542;47.928;2.138;2023-05-09T19:20:10;100089.88;;;20.59;57.20
44825;BME280;30542;47.928;2.138;2023-05-09T19:25:11;100082.91;;;20.64;57.01
44825;BME280;30542;47.928;2.138;2023-05-09T19:30:12;100086.66;;;20.63;57.09
44825;BME280;30542;47.928;2.138;2023-05-09T19:35:15;100102.72;;;20.63;57.11
44825;BME280;30542;47.928;2.138;2023-05-09T19:40:16;100108.84;;;20.63;57.04
44825;BME280;30542;47.928;2.138;2023-05-09T19:45:16;100105.63;;;20.61;57.10
44825;BME280;30542;47.928;2.138;2023-05-09T19:50:17;100104.84;;;20.60;57.20
44825;BME280;30542;47.928;2.138;2023-05-09T19:55:17;100117.16;;;20.62;56.99
44825;BME280;30542;47.928;2.138;2023-05-09T20:00:18;100112.06;;;20.60;57.15
44825;BME280;30542;47.928;2.138;2023-05-09T20:05:18;100116.09;;;20.63;57.17
44825;BME280;30542;47.928;2.138;2023-05-09T20:10:19;100132.41;;;20.61;57.07
44825;BME280;30542;47.928;2.138;2023-05-09T20:15:19;100131.09;;;20.58;57.52
44825;BME280;30542;47.928;2.138;2023-05-09T20:20:20;100137.53;;;20.57;57.21
44825;BME280;30542;47.928;2.138;2023-05-09T20:25:21;100144.19;;;20.60;57.00
44825;BME280;30542;47.928;2.138;2023-05-09T20:30:21;100138.81;;;20.60;57.01
44825;BME280;30542;47.928;2.138;2023-05-09T20:35:21;100134.56;;;20.59;56.91
44825;BME280;30542;47.928;2.138;2023-05-09T20:40:22;100130.28;;;20.58;56.98
44825;BME280;30542;47.928;2.138;2023-05-09T20:45:22;100131.38;;;20.57;56.81
44825;BME280;30542;47.928;2.138;2023-05-09T20:50:22;100133.22;;;20.56;56.91
44825;BME280;30542;47.928;2.138;2023-05-09T20:55:23;100141.25;;;20.56;56.73
44825;BME280;30542;47.928;2.138;2023-05-09T21:00:23;100146.59;;;20.56;56.86
44825;BME280;30542;47.928;2.138;2023-05-09T21:05:23;100146.59;;;20.56;56.63
44825;BME280;30542;47.928;2.138;2023-05-09T21:10:24;100150.91;;;20.57;56.71
44825;BME280;30542;47.928;2.138;2023-05-09T21:15:25;100145.00;;;20.55;56.50
44825;BME280;30542;47.928;2.138;2023-05-09T21:20:25;100147.97;;;20.54;56.75
44825;BME280;30542;47.928;2.138;2023-05-09T21:25:25;100141.53;;;20.55;56.58
44825;BME280;30542;47.928;2.138;2023-05-09T21:30:26;100154.09;;;20.54;56.46
44825;BME280;30542;47.928;2.138;2023-05-09T21:35:26;100152.50;;;20.53;56.32
44825;BME280;30542;47.928;2.138;2023-05-09T21:40:26;100161.34;;;20.54;56.50
44825;BME280;30542;47.928;2.138;2023-05-09T21:45:27;100164.81;;;20.54;56.47
44825;BME280;30542;47.928;2.138;2023-05-09T21:50:28;100165.59;;;20.55;56.45
44825;BME280;30542;47.928;2.138;2023-05-09T21:55:28;100170.69;;;20.56;56.46
44825;BME280;30542;47.928;2.138;2023-05-09T22:00:29;100174.97;;;20.57;56.34
44825;BME280;30542;47.928;2.138;2023-05-09T22:05:29;100173.09;;;20.58;56.18
44825;BME280;30542;47.928;2.138;2023-05-09T22:10:29;100174.72;;;20.54;56.31
44825;BME280;30542;47.928;2.138;2023-05-09T22:15:30;100187.00;;;20.55;56.27
44825;BME280;30542;47.928;2.138;2023-05-09T22:20:30;100190.22;;;20.57;56.19
44825;BME280;30542;47.928;2.138;2023-05-09T22:25:30;100188.63;;;20.56;56.08
44825;BME280;30542;47.928;2.138;2023-05-09T22:30:30;100204.41;;;20.52;56.22
44825;BME280;30542;47.928;2.138;2023-05-09T22:35:31;100202.81;;;20.51;56.16
44825;BME280;30542;47.928;2.138;2023-05-09T22:40:31;100207.91;;;20.53;56.10
44825;BME280;30542;47.928;2.138;2023-05-09T22:45:32;100215.66;;;20.49;56.21
44825;BME280;30542;47.928;2.138;2023-05-09T22:50:32;100213.47;;;20.46;56.06
44825;BME280;30542;47.928;2.138;2023-05-09T22:55:34;100220.97;;;20.44;56.19
44825;BME280;30542;47.928;2.138;2023-05-09T23:00:35;100226.31;;;20.44;56.25
44825;BME280;30542;47.928;2.138;2023-05-09T23:05:35;100230.63;;;20.45;56.18
44825;BME280;30542;47.928;2.138;2023-05-09T23:10:36;100235.16;;;20.45;56.19
44825;BME280;30542;47.928;2.138;2023-05-09T23:15:36;100242.38;;;20.44;56.11
44825;BME280;30542;47.928;2.138;2023-05-09T23:20:36;100245.59;;;20.41;56.07
44825;BME280;30542;47.928;2.138;2023-05-09T23:25:37;100257.09;;;20.42;55.95
44825;BME280;30542;47.928;2.138;2023-05-09T23:30:38;100249.88;;;20.37;56.24
44825;BME280;30542;47.928;2.138;2023-05-09T23:35:38;100258.69;;;20.38;55.98
44825;BME280;30542;47.928;2.138;2023-05-09T23:40:38;100264.56;;;20.40;55.93
44825;BME280;30542;47.928;2.138;2023-05-09T23:45:39;100259.22;;;20.40;55.79
44825;BME280;30542;47.928;2.138;2023-05-09T23:50:40;100257.63;;;20.39;55.93
44825;BME280;30542;47.928;2.138;2023-05-09T23:55:40;100257.91;;;20.37;55.94
